Time;durP1;ratioP1;P1;durP2;ratioP2;P2;SDS_P1;SDS_P2;PMS_P1;PMS_P2;Temp;Humidity;BMP_temperature;BMP_pressure;BME280_temperature;BME280_humidity;BME280_pressure;Samples;Min_cycle;Max_cycle;Signal;HPM_P1;HPM_P2
2021/05/21 00:02:13;;;;;;;3.08;1.13;;;12.70;99.90;;;;;;5033287;28;20040;-80
2021/05/21 00:04:38;;;;;;;5.05;1.40;;;12.60;99.90;;;;;;5033479;28;20013;-80
2021/05/21 00:07:04;;;;;;;1.23;1.13;;;12.60;99.90;;;;;;5034634;28;20049;-79
2021/05/21 00:09:30;;;;;;;1.48;1.38;;;12.60;99.90;;;;;;5028932;28;20444;-79
2021/05/21 00:11:55;;;;;;;5.07;1.80;;;12.60;99.90;;;;;;5031908;28;20025;-79
2021/05/21 00:14:21;;;;;;;4.78;1.45;;;12.60;99.90;;;;;;5024883;28;20033;-80
2021/05/21 00:16:47;;;;;;;1.17;1.00;;;12.60;99.90;;;;;;5021545;28;20041;-79
2021/05/21 00:19:13;;;;;;;1.67;1.30;;;12.60;99.90;;;;;;5022386;28;20049;-80
2021/05/21 00:21:39;;;;;;;2.53;1.10;;;12.50;99.90;;;;;;5030484;28;20112;-79
2021/05/21 00:24:05;;;;;;;2.63;1.38;;;12.50;99.90;;;;;;5034488;28;20026;-80
2021/05/21 00:26:30;;;;;;;6.75;1.20;;;12.50;99.90;;;;;;5034128;28;20437;-80
2021/05/21 00:28:56;;;;;;;4.30;2.53;;;12.40;99.90;;;;;;5033615;28;20151;-80
2021/05/21 00:31:22;;;;;;;2.08;1.33;;;12.40;99.90;;;;;;5034485;28;20080;-79
2021/05/21 00:33:49;;;;;;;2.47;1.50;;;12.40;99.90;;;;;;5034539;28;20021;-80
2021/05/21 00:36:15;;;;;;;2.42;1.35;;;12.40;99.90;;;;;;5034679;28;20032;-79
2021/05/21 00:38:42;;;;;;;3.15;1.73;;;12.40;99.90;;;;;;5019262;28;20032;-80
2021/05/21 00:41:08;;;;;;;2.33;1.33;;;12.30;99.90;;;;;;5027470;28;20029;-79
2021/05/21 00:43:33;;;;;;;1.70;1.23;;;12.30;99.90;;;;;;5030351;28;20025;-80
2021/05/21 00:46:00;;;;;;;2.47;1.10;;;12.30;99.90;;;;;;5033914;28;20017;-80
2021/05/21 00:48:26;;;;;;;2.42;1.42;;;12.30;99.90;;;;;;5033913;28;20029;-80
2021/05/21 00:50:52;;;;;;;1.70;1.10;;;12.30;99.90;;;;;;5033743;28;20030;-80
2021/05/21 00:53:20;;;;;;;5.40;0.90;;;12.20;99.90;;;;;;5032486;28;20019;-80
2021/05/21 00:55:46;;;;;;;4.40;1.58;;;12.20;99.90;;;;;;5033977;28;20079;-79
2021/05/21 00:58:12;;;;;;;4.75;1.40;;;12.10;99.90;;;;;;5029853;28;20450;-80
2021/05/21 01:00:38;;;;;;;3.67;1.58;;;12.10;99.90;;;;;;5018035;28;20037;-79
2021/05/21 01:03:04;;;;;;;3.97;1.25;;;12.00;99.90;;;;;;5023512;28;20017;-80
2021/05/21 01:05:29;;;;;;;2.25;1.30;;;12.00;99.90;;;;;;5034000;28;20025;-80
2021/05/21 01:07:55;;;;;;;3.47;1.38;;;12.00;99.90;;;;;;5033895;28;20018;-80
2021/05/21 01:10:21;;;;;;;4.40;1.45;;;12.00;99.90;;;;;;5033963;28;20476;-80
2021/05/21 01:12:48;;;;;;;6.25;1.30;;;12.00;99.90;;;;;;5033625;28;20030;-79
2021/05/21 01:15:15;;;;;;;1.80;1.30;;;12.00;99.90;;;;;;5032742;28;20080;-79
2021/05/21 01:17:40;;;;;;;2.85;1.35;;;12.00;99.90;;;;;;5033668;28;20539;-79
2021/05/21 01:20:12;;;;;;;2.25;1.17;;;12.00;99.90;;;;;;5021143;28;20108;-80
2021/05/21 01:22:38;;;;;;;3.55;1.15;;;12.10;99.90;;;;;;5017016;28;20037;-80
2021/05/21 01:25:05;;;;;;;2.65;1.25;;;12.10;99.90;;;;;;5027595;28;20030;-80
2021/05/21 01:27:32;;;;;;;2.22;1.20;;;12.10;99.90;;;;;;5023732;28;20087;-80
2021/05/21 01:29:57;;;;;;;2.35;1.17;;;12.10;99.90;;;;;;5032933;28;20142;-79
2021/05/21 01:32:23;;;;;;;1.42;1.27;;;12.10;99.90;;;;;;5033361;28;20025;-80
2021/05/21 01:34:49;;;;;;;1.92;1.42;;;12.10;99.90;;;;;;5033069;28;20465;-80
2021/05/21 01:37:22;;;;;;;1.55;1.10;;;12.10;99.90;;;;;;5033426;28;20392;-80
2021/05/21 01:39:50;;;;;;;2.45;1.20;;;12.10;99.90;;;;;;5033476;28;20057;-80
2021/05/21 01:42:16;;;;;;;2.25;1.30;;;12.10;99.90;;;;;;5030108;28;20382;-80
2021/05/21 01:44:43;;;;;;;3.90;1.30;;;12.10;99.90;;;;;;5012393;28;20033;-80
2021/05/21 01:47:13;;;;;;;1.23;1.13;;;12.10;99.90;;;;;;5016441;28;20014;-80
2021/05/21 01:49:40;;;;;;;1.58;1.42;;;12.10;99.90;;;;;;5031130;28;20046;-80
2021/05/21 01:52:05;;;;;;;1.95;1.20;;;12.10;99.90;;;;;;5031385;28;20057;-80
2021/05/21 01:54:31;;;;;;;2.17;1.38;;;12.10;99.90;;;;;;5033309;28;20367;-80
2021/05/21 01:56:58;;;;;;;1.85;1.17;;;12.10;99.90;;;;;;5032645;28;20029;-81
2021/05/21 01:59:25;;;;;;;3.20;1.27;;;12.10;99.90;;;;;;5033069;28;20029;-81
2021/05/21 02:01:51;;;;;;;3.80;1.40;;;12.10;99.90;;;;;;5033352;28;20037;-80
2021/05/21 02:04:27;;;;;;;5.05;1.27;;;12.10;99.90;;;;;;5032995;28;20466;-80
2021/05/21 02:06:52;;;;;;;1.52;1.30;;;12.10;99.90;;;;;;5032890;28;20103;-80
2021/05/21 02:09:19;;;;;;;2.10;1.10;;;12.10;99.90;;;;;;5032480;28;20017;-81
2021/05/21 02:11:44;;;;;;;1.50;1.25;;;12.10;99.90;;;;;;5033149;28;20112;-80
2021/05/21 02:14:10;;;;;;;7.53;1.35;;;12.10;99.90;;;;;;5032799;28;20101;-80
2021/05/21 02:16:36;;;;;;;1.30;1.20;;;12.00;99.90;;;;;;5032186;28;20049;-81
2021/05/21 02:19:02;;;;;;;2.67;1.40;;;12.10;99.90;;;;;;5032164;28;20501;-80
2021/05/21 02:21:32;;;;;;;2.78;1.27;;;12.10;99.90;;;;;;5032300;28;20050;-80
2021/05/21 02:24:00;;;;;;;6.20;1.00;;;12.00;99.90;;;;;;5032549;28;20022;-80
2021/05/21 02:26:26;;;;;;;4.28;1.05;;;12.10;99.90;;;;;;5032303;28;20022;-81
2021/05/21 02:28:52;;;;;;;5.88;1.38;;;12.00;99.90;;;;;;5032416;28;20021;-80
2021/05/21 02:31:19;;;;;;;1.38;1.10;;;12.00;99.90;;;;;;5031406;28;20041;-80
2021/05/21 02:33:45;;;;;;;3.55;1.00;;;12.00;99.90;;;;;;5032408;28;20021;-80
2021/05/21 02:36:11;;;;;;;7.15;1.20;;;12.10;99.90;;;;;;5032208;28;20032;-80
2021/05/21 02:38:36;;;;;;;1.00;1.00;;;12.10;99.90;;;;;;5030365;28;20408;-81
2021/05/21 02:41:02;;;;;;;2.00;1.20;;;12.10;99.90;;;;;;5032143;28;20037;-81
2021/05/21 02:43:28;;;;;;;3.83;1.23;;;12.10;99.90;;;;;;5031922;28;20064;-80
2021/05/21 02:45:54;;;;;;;2.42;1.20;;;12.00;99.90;;;;;;5031144;28;20045;-80
2021/05/21 02:48:19;;;;;;;1.27;1.00;;;12.00;99.90;;;;;;5032364;28;20025;-80
2021/05/21 02:50:45;;;;;;;7.22;1.35;;;12.00;99.90;;;;;;5031564;28;20049;-81
2021/05/21 02:53:11;;;;;;;1.90;1.70;;;12.00;99.90;;;;;;5031810;28;20484;-81
2021/05/21 02:55:37;;;;;;;2.70;1.30;;;12.00;99.90;;;;;;5030313;28;20021;-80
2021/05/21 02:58:03;;;;;;;2.55;1.30;;;12.00;99.90;;;;;;5031851;28;20028;-81
2021/05/21 03:00:29;;;;;;;2.00;0.90;;;12.00;99.90;;;;;;5031338;28;20028;-81
2021/05/21 03:02:56;;;;;;;2.80;1.20;;;12.00;99.90;;;;;;5031445;28;20017;-81
2021/05/21 03:05:22;;;;;;;1.55;1.27;;;12.00;99.90;;;;;;5031938;28;20053;-80
2021/05/21 03:07:56;;;;;;;1.10;1.00;;;12.00;99.90;;;;;;5018137;28;20013;-80
2021/05/21 03:10:23;;;;;;;1.58;1.00;;;12.10;99.90;;;;;;5031912;28;20037;-81
2021/05/21 03:12:49;;;;;;;5.50;1.20;;;12.10;99.90;;;;;;5031850;28;20022;-80
2021/05/21 03:15:15;;;;;;;1.15;1.05;;;12.10;99.90;;;;;;5020887;28;20040;-80
2021/05/21 03:17:41;;;;;;;3.40;1.20;;;12.10;99.90;;;;;;5028890;28;20018;-80
2021/05/21 03:20:07;;;;;;;10.90;2.15;;;12.10;99.90;;;;;;5031468;28;20535;-82
2021/05/21 03:22:33;;;;;;;2.03;1.17;;;12.10;99.90;;;;;;5031179;28;20115;-81
2021/05/21 03:25:02;;;;;;;5.82;1.15;;;12.10;99.90;;;;;;5031159;28;20414;-80
2021/05/21 03:27:29;;;;;;;1.92;1.27;;;12.10;99.90;;;;;;5031200;28;20021;-82
2021/05/21 03:29:54;;;;;;;6.10;1.30;;;12.10;99.90;;;;;;5031265;28;20021;-84
2021/05/21 03:32:20;;;;;;;1.25;1.10;;;12.10;99.90;;;;;;5031409;28;20473;-81
2021/05/21 03:34:46;;;;;;;8.13;1.80;;;12.10;99.90;;;;;;5031892;28;20021;-81
2021/05/21 03:37:11;;;;;;;1.98;1.33;;;12.20;99.90;;;;;;5032064;28;20022;-81
2021/05/21 03:39:38;;;;;;;2.00;1.63;;;12.20;99.90;;;;;;5031896;28;20029;-81
2021/05/21 03:42:05;;;;;;;1.88;1.25;;;12.20;99.90;;;;;;5031457;28;20474;-80
2021/05/21 03:44:31;;;;;;;1.20;1.08;;;12.20;99.90;;;;;;5031949;28;20373;-80
2021/05/21 03:46:57;;;;;;;2.88;1.20;;;12.30;99.90;;;;;;5030680;28;20029;-81
2021/05/21 03:49:23;;;;;;;3.03;1.20;;;12.30;99.90;;;;;;5030874;28;20048;-81
2021/05/21 03:51:50;;;;;;;4.00;1.60;;;12.40;99.90;;;;;;5031110;28;20433;-81
2021/05/21 03:54:15;;;;;;;2.10;1.30;;;12.50;99.90;;;;;;5031316;28;20049;-81
2021/05/21 03:56:41;;;;;;;1.70;1.15;;;12.60;99.90;;;;;;5031187;28;20128;-81
2021/05/21 03:59:07;;;;;;;5.93;1.30;;;12.70;99.90;;;;;;5031086;28;20014;-80
2021/05/21 04:01:33;;;;;;;1.98;1.17;;;12.80;99.90;;;;;;5018496;28;20502;-80
2021/05/21 04:03:59;;;;;;;1.63;1.00;;;12.80;99.90;;;;;;5025453;28;20056;-80
2021/05/21 04:06:25;;;;;;;1.58;1.17;;;12.90;99.90;;;;;;5021309;28;20057;-80
2021/05/21 04:08:51;;;;;;;4.18;1.13;;;13.00;99.90;;;;;;5022281;28;20411;-80
2021/05/21 04:11:16;;;;;;;1.63;1.20;;;13.00;99.90;;;;;;5024758;28;20030;-81
2021/05/21 04:13:42;;;;;;;1.70;1.15;;;13.10;99.90;;;;;;5025174;28;20053;-81
2021/05/21 04:16:08;;;;;;;6.63;1.00;;;13.20;99.90;;;;;;5035105;28;20021;-81
2021/05/21 04:18:33;;;;;;;1.52;1.17;;;13.30;99.90;;;;;;5035053;28;20033;-81
2021/05/21 04:20:59;;;;;;;2.15;1.10;;;13.40;99.90;;;;;;5034340;28;20108;-81
2021/05/21 04:23:25;;;;;;;3.45;1.10;;;13.50;99.90;;;;;;5034141;28;20025;-81
2021/05/21 04:25:51;;;;;;;6.25;1.30;;;13.60;99.90;;;;;;5034330;28;20033;-80
2021/05/21 04:28:17;;;;;;;6.85;1.35;;;13.80;99.90;;;;;;5026795;28;20028;-80
2021/05/21 04:30:42;;;;;;;2.42;1.13;;;14.10;99.90;;;;;;5023850;28;20030;-80
2021/05/21 04:33:08;;;;;;;3.20;1.10;;;14.30;99.90;;;;;;5028700;28;20035;-80
2021/05/21 04:35:34;;;;;;;2.55;1.13;;;15.00;99.90;;;;;;5034077;28;20112;-79
2021/05/21 04:37:59;;;;;;;1.88;0.93;;;16.30;99.90;;;;;;5034247;28;20092;-80
2021/05/21 04:40:25;;;;;;;4.63;1.00;;;17.80;99.90;;;;;;5030704;28;20029;-80
2021/05/21 04:42:51;;;;;;;2.53;0.90;;;19.00;99.90;;;;;;5024216;28;20374;-81
2021/05/21 04:45:17;;;;;;;0.95;0.85;;;20.30;99.90;;;;;;5033596;28;20108;-81
2021/05/21 04:47:43;;;;;;;2.00;0.90;;;21.60;99.90;;;;;;5030901;28;20452;-81
2021/05/21 04:50:09;;;;;;;1.20;1.10;;;22.90;97.90;;;;;;5028587;28;20041;-78
2021/05/21 04:52:35;;;;;;;2.10;0.88;;;23.40;96.30;;;;;;5030907;28;20022;-81
2021/05/21 04:55:01;;;;;;;1.55;0.90;;;22.80;96.00;;;;;;5034181;28;20033;-80
2021/05/21 04:57:27;;;;;;;4.00;1.17;;;22.70;95.90;;;;;;5034013;28;20080;-81
2021/05/21 04:59:53;;;;;;;3.92;0.85;;;22.80;95.50;;;;;;5032812;28;20456;-81
2021/05/21 05:02:18;;;;;;;2.33;1.15;;;23.20;95.30;;;;;;5034223;28;20069;-81
2021/05/21 05:04:44;;;;;;;4.10;0.90;;;23.90;94.40;;;;;;5034120;28;20079;-81
2021/05/21 05:07:10;;;;;;;1.75;0.98;;;24.60;93.30;;;;;;5033578;28;20017;-81
2021/05/21 05:09:36;;;;;;;1.52;0.90;;;25.50;92.00;;;;;;5032468;28;20084;-81
2021/05/21 05:12:01;;;;;;;1.75;0.80;;;26.10;91.00;;;;;;5023338;28;20021;-79
2021/05/21 05:14:27;;;;;;;3.38;0.80;;;26.60;90.10;;;;;;5023669;28;20044;-79
2021/05/21 05:16:54;;;;;;;1.83;0.70;;;27.30;88.30;;;;;;5032057;28;20030;-79
2021/05/21 05:19:19;;;;;;;1.15;0.60;;;27.20;86.40;;;;;;5033753;28;20021;-81
2021/05/21 05:21:45;;;;;;;1.50;0.90;;;27.80;84.40;;;;;;5029283;28;20087;-78
2021/05/21 05:24:16;;;;;;;2.83;1.05;;;28.50;84.80;;;;;;5028307;28;20091;-81
2021/05/21 05:26:43;;;;;;;9.73;1.20;;;29.40;83.60;;;;;;5030470;28;20024;-78
2021/05/21 05:29:09;;;;;;;4.45;1.08;;;30.00;82.30;;;;;;5021631;28;20108;-81
2021/05/21 05:31:35;;;;;;;6.32;1.70;;;30.50;80.90;;;;;;5031600;28;20034;-78
2021/05/21 05:34:01;;;;;;;4.53;1.80;;;30.50;80.10;;;;;;5032309;28;20374;-78
2021/05/21 05:36:26;;;;;;;1.90;1.00;;;31.00;79.60;;;;;;5033367;28;20470;-78
2021/05/21 05:38:52;;;;;;;7.45;1.45;;;31.80;78.20;;;;;;5032980;28;20018;-78
2021/05/21 05:41:18;;;;;;;5.30;0.93;;;32.80;75.60;;;;;;5032328;28;20033;-78
2021/05/21 05:43:44;;;;;;;5.07;0.88;;;32.80;72.80;;;;;;5032028;28;20022;-81
2021/05/21 05:46:10;;;;;;;4.32;0.80;;;32.60;71.90;;;;;;5030555;28;20061;-77
2021/05/21 05:48:37;;;;;;;3.00;0.90;;;32.50;71.80;;;;;;5032783;28;20053;-85
2021/05/21 05:51:03;;;;;;;4.32;0.80;;;32.60;70.50;;;;;;5032608;28;20040;-85
2021/05/21 05:53:34;;;;;;;7.25;0.95;;;32.50;68.90;;;;;;5032733;28;20025;-84
2021/05/21 05:56:02;;;;;;;9.13;1.20;;;33.20;68.70;;;;;;5031795;28;20024;-86
2021/05/21 05:58:28;;;;;;;8.00;0.70;;;34.00;67.90;;;;;;5033190;28;20120;-78
2021/05/21 06:00:54;;;;;;;8.70;0.80;;;34.80;65.00;;;;;;5029001;28;20105;-86
2021/05/21 06:03:19;;;;;;;1.40;1.00;;;35.20;64.10;;;;;;5032376;28;20037;-82
2021/05/21 06:05:45;;;;;;;5.80;0.90;;;35.20;63.10;;;;;;5031192;28;20425;-83
2021/05/21 06:08:11;;;;;;;9.40;0.70;;;36.00;61.20;;;;;;5031504;28;20021;-86
2021/05/21 06:10:38;;;;;;;2.05;0.77;;;36.50;59.80;;;;;;5031836;28;20111;-84
2021/05/21 06:13:05;;;;;;;7.32;0.70;;;36.80;59.20;;;;;;5032715;28;20025;-81
2021/05/21 06:15:32;;;;;;;1.40;0.70;;;37.00;58.10;;;;;;5033393;28;20037;-83
2021/05/21 06:17:58;;;;;;;9.70;0.98;;;37.10;58.20;;;;;;5032763;28;20014;-83
2021/05/21 06:20:25;;;;;;;11.07;0.82;;;36.70;57.60;;;;;;5033151;28;20551;-85
2021/05/21 06:22:51;;;;;;;2.10;0.70;;;36.60;57.40;;;;;;5033156;28;20053;-83
2021/05/21 06:25:22;;;;;;;2.03;0.65;;;37.00;56.90;;;;;;5033255;28;20462;-83
2021/05/21 06:27:48;;;;;;;3.63;0.43;;;37.30;55.90;;;;;;5032549;28;20045;-80
2021/05/21 06:30:14;;;;;;;4.78;0.50;;;37.30;55.90;;;;;;5032377;28;20025;-83
2021/05/21 06:32:43;;;;;;;0.55;0.50;;;38.00;56.00;;;;;;5032796;28;20017;-82
2021/05/21 06:35:10;;;;;;;1.00;0.50;;;38.60;55.50;;;;;;5032513;28;20098;-84
2021/05/21 06:37:36;;;;;;;1.17;0.57;;;38.40;54.80;;;;;;5032253;28;20022;-81
2021/05/21 06:40:03;;;;;;;2.10;0.50;;;37.50;55.00;;;;;;5032330;28;20425;-83
2021/05/21 06:42:29;;;;;;;5.10;0.63;;;38.10;55.40;;;;;;5032640;28;20466;-82
2021/05/21 06:44:55;;;;;;;5.18;0.60;;;38.20;55.00;;;;;;5032444;28;20025;-82
2021/05/21 06:47:21;;;;;;;0.70;0.25;;;38.10;54.70;;;;;;5032374;28;20022;-84
2021/05/21 06:49:48;;;;;;;2.08;0.40;;;37.50;55.00;;;;;;5032186;28;20049;-82
2021/05/21 06:52:14;;;;;;;1.45;0.60;;;36.90;55.30;;;;;;5032289;28;20079;-83
2021/05/21 06:54:41;;;;;;;3.22;1.13;;;36.90;55.90;;;;;;5032188;28;20036;-83
2021/05/21 06:57:07;;;;;;;2.97;0.90;;;36.00;55.90;;;;;;5031920;28;20036;-83
2021/05/21 06:59:33;;;;;;;4.55;1.05;;;35.10;57.00;;;;;;5032377;28;20091;-83
2021/05/21 07:01:59;;;;;;;7.25;0.70;;;33.40;58.30;;;;;;5032505;28;20029;-83
2021/05/21 07:04:24;;;;;;;1.27;0.60;;;32.40;59.90;;;;;;5032409;28;20033;-80
2021/05/21 07:06:50;;;;;;;9.35;1.20;;;31.30;61.50;;;;;;5032403;28;20152;-83
2021/05/21 07:09:16;;;;;;;1.45;0.70;;;30.20;63.10;;;;;;5032162;28;20074;-83
2021/05/21 07:11:41;;;;;;;6.75;0.80;;;29.10;65.20;;;;;;5030090;28;20037;-79
2021/05/21 07:14:10;;;;;;;3.80;1.05;;;27.60;66.60;;;;;;5030770;28;20033;-82
2021/05/21 07:16:35;;;;;;;2.15;0.90;;;26.90;68.70;;;;;;5031998;28;20022;-82
2021/05/21 07:19:01;;;;;;;4.07;0.70;;;26.30;69.10;;;;;;5031588;28;20072;-81
2021/05/21 07:21:27;;;;;;;9.82;0.90;;;25.50;70.40;;;;;;5031630;28;20026;-82
2021/05/21 07:23:53;;;;;;;2.72;0.80;;;25.10;71.40;;;;;;5028128;28;20049;-82
2021/05/21 07:26:19;;;;;;;1.27;0.70;;;24.80;71.60;;;;;;5026211;28;20116;-81
2021/05/21 07:28:45;;;;;;;3.90;1.17;;;24.60;71.60;;;;;;5021786;28;20028;-78
2021/05/21 07:31:10;;;;;;;2.92;0.50;;;24.40;72.00;;;;;;5031009;28;20041;-79
2021/05/21 07:33:37;;;;;;;1.10;0.40;;;24.30;71.10;;;;;;5031332;28;20026;-82
2021/05/21 07:36:03;;;;;;;1.45;0.60;;;24.30;71.40;;;;;;5030359;28;20473;-81
2021/05/21 07:38:30;;;;;;;2.35;0.52;;;24.30;71.90;;;;;;5030026;28;20014;-82
2021/05/21 07:40:57;;;;;;;0.82;0.52;;;24.50;69.50;;;;;;5030320;28;20030;-80
2021/05/21 07:43:23;;;;;;;2.25;0.35;;;24.30;68.90;;;;;;5031234;28;20045;-80
2021/05/21 07:45:49;;;;;;;1.33;0.60;;;24.20;69.50;;;;;;5031316;28;20060;-83
2021/05/21 07:48:15;;;;;;;3.78;0.47;;;24.20;69.50;;;;;;5031572;28;20017;-80
2021/05/21 07:50:41;;;;;;;0.57;0.50;;;24.00;69.50;;;;;;5034497;28;20046;-84
2021/05/21 07:53:07;;;;;;;1.40;0.70;;;24.10;71.30;;;;;;5024720;28;20033;-82
2021/05/21 07:55:34;;;;;;;0.85;0.57;;;24.30;71.10;;;;;;5034604;28;20021;-80
2021/05/21 07:57:59;;;;;;;2.80;0.60;;;24.40;71.30;;;;;;5024002;28;20454;-83
2021/05/21 08:00:25;;;;;;;2.97;0.70;;;24.50;72.00;;;;;;5022924;28;20030;-81
2021/05/21 08:02:51;;;;;;;2.45;1.27;;;24.90;72.00;;;;;;5022150;28;20025;-84
2021/05/21 08:05:17;;;;;;;1.98;0.60;;;25.10;70.90;;;;;;5028361;28;20069;-85
2021/05/21 08:07:43;;;;;;;1.35;0.70;;;25.30;69.30;;;;;;5033269;28;20488;-78
2021/05/21 08:10:09;;;;;;;4.85;0.80;;;25.30;68.50;;;;;;5028706;28;20117;-84
2021/05/21 08:12:35;;;;;;;0.40;0.38;;;25.20;69.10;;;;;;5031750;28;20088;-82
2021/05/21 08:15:02;;;;;;;4.32;0.90;;;25.30;69.40;;;;;;5034852;28;20034;-81
2021/05/21 08:17:32;;;;;;;0.30;0.30;;;25.30;69.40;;;;;;5030060;28;20025;-78
2021/05/21 08:19:58;;;;;;;2.05;0.43;;;25.20;69.50;;;;;;5021696;28;20528;-77
2021/05/21 08:22:24;;;;;;;1.98;0.65;;;25.20;68.50;;;;;;5033818;28;20112;-82
2021/05/21 08:24:50;;;;;;;1.75;0.63;;;24.90;69.20;;;;;;5032820;28;20530;-81
2021/05/21 08:27:15;;;;;;;1.55;0.70;;;25.00;69.20;;;;;;5033277;28;20041;-78
2021/05/21 08:29:41;;;;;;;1.73;0.70;;;24.90;69.30;;;;;;5025829;28;20523;-78
2021/05/21 08:32:07;;;;;;;9.48;1.20;;;25.20;71.30;;;;;;5034880;28;20104;-79
2021/05/21 08:34:33;;;;;;;3.08;0.60;;;25.50;70.70;;;;;;5034857;28;20502;-79
2021/05/21 08:36:58;;;;;;;1.20;0.70;;;25.80;70.30;;;;;;5034401;28;20025;-79
2021/05/21 08:39:24;;;;;;;1.90;0.88;;;25.80;69.90;;;;;;5034811;28;20071;-82
2021/05/21 08:41:53;;;;;;;2.13;0.70;;;26.10;69.90;;;;;;5034691;28;20022;-81
2021/05/21 08:44:20;;;;;;;2.20;0.80;;;26.30;69.40;;;;;;5034904;28;20100;-77
2021/05/21 08:46:46;;;;;;;4.88;0.70;;;26.40;68.90;;;;;;5033721;28;20033;-84
2021/05/21 08:49:13;;;;;;;5.47;0.90;;;26.50;69.50;;;;;;5033746;28;20060;-79
2021/05/21 08:51:39;;;;;;;3.03;1.00;;;26.60;69.00;;;;;;5033744;28;20038;-80
2021/05/21 08:54:07;;;;;;;3.17;0.90;;;26.50;69.10;;;;;;5025460;28;20026;-83
2021/05/21 08:56:33;;;;;;;5.75;0.90;;;26.60;69.60;;;;;;5026571;28;20030;-82
2021/05/21 08:59:00;;;;;;;6.25;0.98;;;26.60;69.90;;;;;;5024820;28;20028;-81
2021/05/21 09:01:27;;;;;;;4.25;1.00;;;26.60;70.10;;;;;;5034312;28;20454;-82
2021/05/21 09:04:01;;;;;;;6.25;0.93;;;26.60;69.80;;;;;;5036186;28;20036;-76
2021/05/21 09:06:28;;;;;;;7.63;1.17;;;26.60;70.30;;;;;;5034913;28;20645;-88
2021/05/21 09:09:00;;;;;;;7.50;0.80;;;26.50;70.00;;;;;;5035284;28;20026;-77
2021/05/21 09:11:34;;;;;;;5.05;0.80;;;26.40;70.70;;;;;;5035877;28;20099;-78
2021/05/21 09:14:06;;;;;;;3.60;0.90;;;26.30;71.40;;;;;;5034812;28;20018;-89
2021/05/21 09:16:40;;;;;;;5.05;1.23;;;26.30;72.00;;;;;;5033841;28;20551;-84
2021/05/21 09:19:19;;;;;;;8.38;1.13;;;26.20;71.30;;;;;;5034959;28;20036;-79
2021/05/21 09:22:07;;;;;;;3.35;1.10;;;26.10;72.30;;;;;;5038210;28;20010;-77
2021/05/21 09:24:42;;;;;;;3.92;1.52;;;26.10;72.10;;;;;;5037525;28;20030;-77
2021/05/21 09:27:09;;;;;;;8.48;1.13;;;26.20;72.40;;;;;;5036148;28;20018;-91
2021/05/21 09:29:48;;;;;;;1.75;1.08;;;26.00;72.00;;;;;;5035252;28;20077;-93
2021/05/21 09:32:24;;;;;;;10.50;1.08;;;26.00;73.40;;;;;;5026907;28;20409;-88
2021/05/21 09:35:07;;;;;;;1.33;0.90;;;26.00;73.60;;;;;;5031844;28;20026;-84
2021/05/21 09:37:34;;;;;;;18.73;1.17;;;26.00;72.70;;;;;;5025163;28;20041;-76
2021/05/21 09:40:09;;;;;;;5.13;1.25;;;26.20;71.20;;;;;;5020994;28;20057;-80
2021/05/21 09:42:49;;;;;;;8.57;1.15;;;26.30;72.10;;;;;;5018414;28;20488;-82
2021/05/21 09:45:21;;;;;;;3.55;0.80;;;26.10;71.40;;;;;;5028336;28;20103;-81
2021/05/21 09:47:55;;;;;;;3.15;1.23;;;25.80;74.10;;;;;;5020527;28;20034;-80
2021/05/21 09:50:41;;;;;;;5.45;1.10;;;25.90;72.80;;;;;;5023828;28;20056;-77
2021/05/21 09:53:10;;;;;;;7.35;1.50;;;25.90;71.00;;;;;;5026048;28;20026;-77
2021/05/21 09:55:44;;;;;;;3.42;1.08;;;25.80;72.60;;;;;;5030999;28;20113;-78
2021/05/21 09:58:32;;;;;;;16.25;1.60;;;25.40;72.10;;;;;;5026310;28;20022;-76
2021/05/21 10:01:11;;;;;;;3.60;0.80;;;25.10;73.20;;;;;;5026796;28;20030;-77
2021/05/21 10:03:57;;;;;;;5.30;1.40;;;25.20;74.20;;;;;;5028216;28;20053;-78
2021/05/21 10:06:28;;;;;;;3.28;1.35;;;25.00;75.70;;;;;;5022464;28;20040;-77
2021/05/21 10:08:59;;;;;;;3.25;1.13;;;24.70;75.60;;;;;;5026767;28;20033;-78
2021/05/21 10:11:25;;;;;;;1.95;0.80;;;24.30;77.10;;;;;;5029108;28;20374;-72
2021/05/21 10:13:52;;;;;;;1.75;0.90;;;23.80;79.00;;;;;;5026386;28;20079;-77
2021/05/21 10:16:19;;;;;;;2.42;1.10;;;23.40;79.20;;;;;;5024692;28;20022;-78
2021/05/21 10:18:50;;;;;;;3.47;0.90;;;23.20;81.10;;;;;;5017524;28;20033;-77
2021/05/21 10:21:17;;;;;;;3.92;1.35;;;23.20;81.20;;;;;;5030424;28;20024;-74
2021/05/21 10:23:55;;;;;;;2.30;0.93;;;23.30;80.40;;;;;;5027907;28;20056;-77
2021/05/21 10:26:33;;;;;;;1.95;1.10;;;23.20;81.40;;;;;;5035213;28;20387;-80
2021/05/21 10:29:00;;;;;;;1.75;1.02;;;23.40;81.10;;;;;;5021352;28;20018;-81
2021/05/21 10:31:27;;;;;;;3.60;1.10;;;23.40;80.70;;;;;;5024148;28;20053;-77
2021/05/21 10:34:16;;;;;;;4.03;0.90;;;23.60;81.40;;;;;;5031903;28;20112;-80
2021/05/21 10:36:42;;;;;;;2.90;1.02;;;23.90;81.00;;;;;;5030400;28;20543;-79
2021/05/21 10:39:20;;;;;;;1.25;0.82;;;24.10;79.60;;;;;;5020623;28;20025;-77
2021/05/21 10:41:57;;;;;;;3.92;1.00;;;24.40;79.50;;;;;;5027393;28;20087;-78
2021/05/21 10:44:28;;;;;;;10.15;1.08;;;24.70;79.00;;;;;;5016517;28;20033;-77
2021/05/21 10:47:12;;;;;;;3.55;1.00;;;24.80;79.00;;;;;;5027965;28;20355;-77
2021/05/21 10:49:38;;;;;;;6.45;1.20;;;25.00;78.40;;;;;;5022203;28;20053;-79
2021/05/21 10:52:05;;;;;;;2.25;0.95;;;25.00;78.30;;;;;;5032109;28;20063;-76
2021/05/21 10:54:50;;;;;;;3.85;1.00;;;24.90;78.40;;;;;;5031908;28;20469;-76
2021/05/21 10:57:26;;;;;;;11.82;1.40;;;25.10;78.80;;;;;;5030504;28;20156;-77
2021/05/21 10:59:55;;;;;;;4.78;1.48;;;25.20;79.20;;;;;;5029338;28;20138;-79
2021/05/21 11:02:23;;;;;;;2.28;1.13;;;25.00;79.20;;;;;;5027051;28;20029;-79
2021/05/21 11:04:52;;;;;;;1.23;0.90;;;24.60;80.40;;;;;;5021566;28;20014;-77
2021/05/21 11:07:42;;;;;;;8.55;1.45;;;24.60;81.40;;;;;;5028504;28;20173;-76
2021/05/21 11:10:33;;;;;;;2.60;1.17;;;24.60;80.10;;;;;;5023511;28;20026;-78
2021/05/21 11:13:07;;;;;;;5.43;1.50;;;24.70;80.10;;;;;;5024978;28;20466;-76
2021/05/21 11:15:33;;;;;;;3.97;1.40;;;24.80;81.00;;;;;;5030946;28;20038;-76
2021/05/21 11:18:17;;;;;;;4.65;2.00;;;24.90;80.10;;;;;;5027223;28;20490;-75
2021/05/21 11:21:12;;;;;;;1.95;1.10;;;24.90;80.40;;;;;;5029835;28;20072;-78
2021/05/21 11:23:38;;;;;;;5.28;1.55;;;25.10;80.50;;;;;;5022925;28;20026;-75
2021/05/21 11:26:13;;;;;;;2.53;1.13;;;25.20;80.40;;;;;;5030354;28;20014;-76
2021/05/21 11:28:50;;;;;;;3.35;1.60;;;25.30;80.70;;;;;;5034237;28;20028;-77
2021/05/21 11:31:19;;;;;;;4.63;1.10;;;25.20;81.20;;;;;;5034983;28;20425;-75
2021/05/21 11:33:47;;;;;;;1.95;1.05;;;25.10;81.20;;;;;;5030192;28;20458;-77
2021/05/21 11:36:14;;;;;;;5.45;1.00;;;25.10;81.00;;;;;;5022984;28;20026;-75
2021/05/21 11:38:40;;;;;;;3.53;1.10;;;25.10;81.20;;;;;;5018828;28;20018;-79
2021/05/21 11:41:07;;;;;;;2.80;0.93;;;25.10;81.80;;;;;;5023286;28;20026;-77
2021/05/21 11:43:41;;;;;;;3.60;1.15;;;25.10;82.60;;;;;;5033736;28;20108;-76
2021/05/21 11:46:16;;;;;;;3.70;1.58;;;25.20;82.90;;;;;;5029558;28;20022;-77
2021/05/21 11:48:44;;;;;;;4.25;1.25;;;25.40;83.30;;;;;;5024271;28;20042;-77
2021/05/21 11:51:17;;;;;;;2.55;1.20;;;25.40;84.20;;;;;;5020466;28;20076;-75
2021/05/21 11:54:01;;;;;;;4.70;1.70;;;25.50;85.80;;;;;;5021929;28;20076;-75
2021/05/21 11:56:38;;;;;;;3.42;1.10;;;25.50;87.00;;;;;;5019377;28;20092;-78
2021/05/21 11:59:19;;;;;;;5.18;1.50;;;25.50;86.70;;;;;;5033035;28;20030;-75
2021/05/21 12:01:48;;;;;;;8.95;1.40;;;25.60;87.10;;;;;;5034273;28;20032;-75
2021/05/21 12:04:15;;;;;;;9.93;1.58;;;25.50;88.10;;;;;;5030430;28;20110;-73
2021/05/21 12:06:47;;;;;;;5.47;1.58;;;25.50;88.20;;;;;;5025569;28;20029;-75
2021/05/21 12:09:15;;;;;;;6.13;1.40;;;25.50;87.50;;;;;;5025034;28;20018;-75
2021/05/21 12:11:42;;;;;;;6.97;1.65;;;25.40;88.40;;;;;;5026115;28;20091;-74
2021/05/21 12:14:16;;;;;;;3.95;1.33;;;25.40;88.70;;;;;;5032914;28;20432;-75
2021/05/21 12:16:44;;;;;;;4.90;1.63;;;25.30;89.70;;;;;;5034483;28;20025;-74
2021/05/21 12:19:12;;;;;;;4.25;1.45;;;25.30;89.30;;;;;;5034560;28;20030;-74
2021/05/21 12:21:47;;;;;;;7.93;1.58;;;25.20;88.80;;;;;;5025535;28;20025;-75
2021/05/21 12:24:16;;;;;;;6.53;1.42;;;25.00;88.90;;;;;;5030139;28;20029;-76
2021/05/21 12:26:44;;;;;;;6.82;1.67;;;24.80;89.90;;;;;;5034175;28;20366;-77
2021/05/21 12:29:11;;;;;;;5.30;1.35;;;24.70;90.30;;;;;;5029520;28;20030;-76
2021/05/21 12:31:38;;;;;;;2.20;1.20;;;24.80;90.90;;;;;;5032554;28;20421;-79
2021/05/21 12:34:05;;;;;;;7.47;1.27;;;24.90;90.80;;;;;;5033771;28;20386;-79
2021/05/21 12:36:34;;;;;;;10.20;1.33;;;25.10;90.70;;;;;;5034290;28;20021;-74
2021/05/21 12:39:06;;;;;;;9.85;1.48;;;25.20;90.60;;;;;;5032955;28;20462;-75
2021/05/21 12:41:40;;;;;;;5.10;1.83;;;25.30;90.50;;;;;;5034231;28;20021;-74
2021/05/21 12:44:17;;;;;;;3.70;1.60;;;25.40;90.50;;;;;;5020537;28;20076;-73
2021/05/21 12:46:46;;;;;;;15.23;1.50;;;25.50;90.20;;;;;;5027941;28;20515;-77
2021/05/21 12:49:19;;;;;;;6.15;1.45;;;25.50;90.40;;;;;;5023469;28;20053;-74
2021/05/21 12:51:52;;;;;;;6.07;1.77;;;25.50;90.00;;;;;;5023546;28;20398;-74